Terminal Aerodrome Forecast
Issued by NWS Albany, NY

Home | Current Version | Previous Version | Text Only | Print | Product List | Glossary On
Versions: 1 2 3 4 5 6 7 8 9 10 11 12 13 14
943
FTUS41 KALY 222353
TAFGFL
TAF
KGFL 222353Z 2300/2324 VRB03KT P6SM SCT035 SCT100
     FM230300 VRB02KT 3SM BR BKN015
     FM231400 20003KT P6SM OVC015
     FM231700 19006KT P6SM OVC025=

USA.gov is the U.S. government's official web portal to all federal, state and local government web resources and services.